Time;durP1;ratioP1;P1;durP2;ratioP2;P2;SDS_P1;SDS_P2;PMS_P1;PMS_P2;Temp;Humidity;BMP_temperature;BMP_pressure;BME280_temperature;BME280_humidity;BME280_pressure;Samples;Min_cycle;Max_cycle;Signal;HPM_P1;HPM_P2
2021/12/18 00:01:43;;;;;;;4.35;2.60;;;;;;;12.38;67.56;103340.34;4930113;28;120043;-83
2021/12/18 00:04:09;;;;;;;5.32;2.80;;;;;;;12.52;67.62;103359.56;4927817;28;120445;-84
2021/12/18 00:06:35;;;;;;;4.47;2.78;;;;;;;12.35;67.16;103340.38;4910637;28;123210;-84
2021/12/18 00:09:01;;;;;;;2.92;2.22;;;;;;;12.41;67.85;103350.56;4925705;28;119876;-85
2021/12/18 00:11:27;;;;;;;4.13;2.33;;;;;;;12.51;67.55;103365.47;4907010;28;122025;-83
2021/12/18 00:13:52;;;;;;;3.13;1.95;;;;;;;12.28;67.59;103325.41;4922608;28;125390;-82
2021/12/18 00:16:18;;;;;;;2.72;1.92;;;;;;;12.48;67.85;103360.75;4923671;28;119765;-82
2021/12/18 00:18:46;;;;;;;2.47;1.95;;;;;;;12.26;67.93;103322.28;4910704;28;121671;-83
2021/12/18 00:21:14;;;;;;;4.22;2.42;;;;;;;12.31;67.46;103323.06;4906373;28;121742;-83
2021/12/18 00:23:40;;;;;;;3.10;1.88;;;;;;;12.43;67.56;103347.41;4924545;28;119500;-84
2021/12/18 00:26:06;;;;;;;2.33;1.60;;;;;;;12.50;67.50;103359.16;4907512;28;120360;-84
2021/12/18 00:28:32;;;;;;;2.47;1.80;;;;;;;12.35;67.82;103334.84;4930613;28;120905;-82
2021/12/18 00:30:57;;;;;;;2.97;1.80;;;;;;;12.39;67.64;103343.88;4927841;28;120677;-84
2021/12/18 00:33:23;;;;;;;2.63;1.77;;;;;;;12.49;67.77;103365.06;4922912;28;121023;-81
2021/12/18 00:35:48;;;;;;;2.92;1.90;;;;;;;12.26;67.57;103330.53;4923997;28;124745;-81
2021/12/18 00:38:14;;;;;;;3.92;1.50;;;;;;;12.32;67.96;103330.16;4927839;28;121717;-84
2021/12/18 00:41:35;;;;;;;17.63;10.40;;;;;;;12.34;67.85;103341.53;4919068;28;121068;-84
2021/12/18 00:43:33;;;;;;;4.43;2.70;;;;;;;12.35;67.62;103337.59;4919253;28;119841;-84
2021/12/18 00:45:59;;;;;;;1.75;1.42;;;;;;;12.46;67.25;103363.91;4917174;28;123154;-84
2021/12/18 00:48:25;;;;;;;1.10;0.95;;;;;;;12.40;66.86;103351.75;4925484;28;119861;-84
2021/12/18 00:50:52;;;;;;;2.40;1.85;;;;;;;12.34;67.13;103349.81;4929933;28;119866;-83
2021/12/18 00:53:18;;;;;;;1.20;1.10;;;;;;;12.22;66.79;103334.47;4949979;28;120921;-83
2021/12/18 00:55:44;;;;;;;2.13;1.50;;;;;;;12.15;67.16;103331.75;4912546;28;119780;-83
2021/12/18 00:58:10;;;;;;;2.50;1.73;;;;;;;12.18;66.91;103342.75;4929054;28;122147;-83
2021/12/18 01:00:38;;;;;;;2.38;1.40;;;;;;;12.25;66.97;103358.47;4914040;28;122972;-86
2021/12/18 01:03:13;;;;;;;1.63;1.33;;;;;;;12.16;67.07;103349.84;4928826;28;120231;-83
2021/12/18 01:05:39;;;;;;;2.25;1.60;;;;;;;12.23;67.27;103353.34;4914416;28;120553;-84
2021/12/18 01:08:05;;;;;;;3.53;1.75;;;;;;;12.13;67.06;103334.13;4932704;28;119914;-83
2021/12/18 01:12:58;;;;;;;2.28;1.50;;;;;;;12.18;67.20;103345.50;4928900;28;119838;-82
2021/12/18 01:15:34;;;;;;;2.45;1.58;;;;;;;11.98;67.47;103320.38;4931043;28;119642;-83
2021/12/18 01:23:42;;;;;;;2.50;2.00;;;;;;;12.18;67.56;103342.75;4909230;28;119788;-83
2021/12/18 01:26:08;;;;;;;3.88;2.10;;;;;;;12.23;67.66;103347.06;4896264;28;123161;-84
2021/12/18 01:28:34;;;;;;;3.50;2.10;;;;;;;12.07;67.67;103328.25;4931819;28;121302;-83
2021/12/18 01:31:00;;;;;;;2.75;2.20;;;;;;;12.29;67.87;103353.72;4926431;28;119627;-82
2021/12/18 01:33:26;;;;;;;3.15;2.20;;;;;;;12.27;67.80;103350.59;4912087;28;123451;-83
2021/12/18 01:35:53;;;;;;;4.15;2.05;;;;;;;12.29;67.73;103354.50;4927433;28;119861;-83
2021/12/18 01:38:21;;;;;;;2.65;1.80;;;;;;;12.36;67.51;103352.94;4939422;28;119768;-84
2021/12/18 01:40:47;;;;;;;2.58;2.00;;;;;;;12.35;67.55;103359.63;4909152;28;122856;-84
2021/12/18 01:46:16;;;;;;;3.15;1.60;;;;;;;12.20;67.32;103328.59;4925135;28;122098;-84
2021/12/18 01:51:45;;;;;;;;;;;;;;;12.19;67.42;103349.81;4944324;28;120816;-83
2021/12/18 01:54:12;;;;;;;1.38;1.10;;;;;;;12.10;67.37;103334.91;4931146;28;120417;-84
2021/12/18 01:56:38;;;;;;;1.58;1.10;;;;;;;12.05;67.17;103327.03;4943490;28;119958;-83
2021/12/18 01:59:04;;;;;;;4.47;1.30;;;;;;;12.04;67.37;103329.00;4924376;28;122452;-83
2021/12/18 02:01:29;;;;;;;1.50;1.20;;;;;;;12.14;67.28;103344.72;4925255;28;122572;-82
2021/12/18 02:03:55;;;;;;;1.73;1.30;;;;;;;12.14;67.26;103353.00;4925583;28;120050;-83
2021/12/18 02:06:23;;;;;;;2.15;1.67;;;;;;;12.02;67.36;103339.63;4922001;28;120281;-83
2021/12/18 02:08:49;;;;;;;1.75;1.52;;;;;;;12.08;67.53;103343.56;4926348;28;120118;-83
2021/12/18 02:21:53;;;;;;;;;;;;;;;12.12;67.68;103352.59;4928746;28;121256;-83
2021/12/18 02:24:22;;;;;;;2.08;1.67;;;;;;;11.99;67.87;103340.44;4928172;28;119503;-83
2021/12/18 02:26:48;;;;;;;2.45;1.60;;;;;;;12.15;67.51;103356.53;4928658;28;121537;-83
2021/12/18 02:29:15;;;;;;;1.60;1.40;;;;;;;12.00;67.42;103331.00;4925680;28;122602;-83
2021/12/18 02:31:42;;;;;;;1.45;1.10;;;;;;;12.12;66.88;103340.81;4927252;28;120481;-81
2021/12/18 02:34:15;;;;;;;1.08;0.98;;;;;;;12.06;67.55;103348.66;4912576;28;122676;-82
2021/12/18 02:36:46;;;;;;;3.20;1.20;;;;;;;12.05;67.66;103344.34;4924723;28;125324;-83
2021/12/18 02:39:35;;;;;;;2.30;1.13;;;;;;;12.02;67.56;103342.38;4942276;28;119954;-84
2021/12/18 02:44:32;;;;;;;1.25;1.10;;;;;;;12.00;67.68;103331.00;4926477;28;119817;-84
2021/12/18 02:46:58;;;;;;;1.50;1.25;;;;;;;11.98;67.60;103323.13;4911787;28;122871;-83
2021/12/18 02:49:25;;;;;;;1.38;1.27;;;;;;;11.92;67.94;103315.69;4939257;28;122721;-85
2021/12/18 02:51:50;;;;;;;2.20;1.42;;;;;;;11.94;67.55;103314.13;4926815;28;119515;-85
2021/12/18 02:54:16;;;;;;;2.33;1.40;;;;;;;11.92;67.83;103319.22;4925479;28;121992;-84
2021/12/18 02:56:41;;;;;;;3.35;1.75;;;;;;;11.88;67.93;103304.69;4908577;28;121259;-81
2021/12/18 02:59:09;;;;;;;2.95;1.48;;;;;;;11.90;67.53;103307.06;4929509;28;119851;-83
2021/12/18 03:01:40;;;;;;;1.70;1.40;;;;;;;12.04;67.39;103331.78;4923402;28;120284;-84
2021/12/18 03:04:31;;;;;;;2.15;1.20;;;;;;;11.77;67.30;103294.84;4910328;28;119708;-83
2021/12/18 03:07:03;;;;;;;1.15;1.05;;;;;;;11.95;67.46;103325.91;4925912;28;120318;-82
2021/12/18 03:23:05;;;;;;;2.25;1.30;;;;;;;11.76;67.77;103285.81;4929212;28;120470;-84
2021/12/18 03:25:34;;;;;;;;;;;;;;;11.87;67.68;103307.84;4922121;28;119881;-83
2021/12/18 03:28:03;;;;;;;2.42;1.60;;;;;;;11.87;67.93;103300.38;4933815;28;121410;-83
2021/12/18 03:30:29;;;;;;;2.75;1.70;;;;;;;11.69;68.00;103274.84;4910875;28;120078;-83
2021/12/18 03:32:55;;;;;;;2.63;1.55;;;;;;;11.89;68.09;103299.97;4942541;28;120008;-85
2021/12/18 03:35:22;;;;;;;2.15;1.30;;;;;;;11.88;67.91;103293.69;4912852;28;121033;-84
2021/12/18 03:37:48;;;;;;;4.05;1.90;;;;;;;11.87;68.18;103289.38;4929017;28;120356;-84
2021/12/18 03:40:19;;;;;;;3.45;1.77;;;;;;;11.90;67.58;103293.28;4928030;28;120376;-85
2021/12/18 03:42:46;;;;;;;4.32;1.88;;;;;;;11.87;67.76;103291.34;4931719;28;119966;-81
2021/12/18 03:45:13;;;;;;;2.85;1.85;;;;;;;11.86;67.89;103284.28;4927232;28;119590;-84
2021/12/18 03:47:39;;;;;;;1.50;1.00;;;;;;;11.87;68.08;103294.09;4926632;28;122737;-83
2021/12/18 03:50:05;;;;;;;2.42;1.17;;;;;;;11.91;68.10;103286.63;4932377;28;120376;-84
2021/12/18 03:52:31;;;;;;;1.42;1.20;;;;;;;11.87;68.07;103289.38;4932595;28;120063;-84
2021/12/18 03:54:59;;;;;;;1.40;1.17;;;;;;;11.93;67.84;103287.00;4927153;28;122560;-83
2021/12/18 03:57:25;;;;;;;1.42;1.20;;;;;;;11.97;68.09;103285.03;4927757;28;123270;-84
2021/12/18 03:59:51;;;;;;;3.30;1.38;;;;;;;11.88;68.08;103279.16;4911412;28;121134;-84
2021/12/18 04:02:17;;;;;;;1.40;1.27;;;;;;;11.86;67.72;103268.56;4910020;28;120014;-83
2021/12/18 04:04:43;;;;;;;1.35;1.25;;;;;;;11.75;67.49;103247.72;4933168;28;119994;-84
2021/12/18 04:07:09;;;;;;;2.20;1.40;;;;;;;11.94;67.31;103278.34;4917116;28;122708;-85
2021/12/18 04:09:35;;;;;;;2.00;1.30;;;;;;;11.94;67.27;103277.56;4924882;28;121157;-83
2021/12/18 04:12:02;;;;;;;1.85;1.45;;;;;;;11.92;67.65;103279.94;4927767;28;119640;-83
2021/12/18 04:14:28;;;;;;;1.73;1.40;;;;;;;11.91;67.86;103273.66;4944183;28;120324;-83
2021/12/18 04:16:53;;;;;;;3.08;1.80;;;;;;;11.79;67.72;103256.75;4924602;28;123340;-82
2021/12/18 04:19:19;;;;;;;2.15;1.58;;;;;;;11.90;67.50;103272.06;4927638;28;120251;-84
2021/12/18 04:21:46;;;;;;;1.92;1.35;;;;;;;11.81;67.44;103260.69;4928919;28;119837;-85
2021/12/18 04:24:12;;;;;;;1.95;1.63;;;;;;;11.76;67.50;103247.31;4910427;28;122679;-84
2021/12/18 04:26:38;;;;;;;2.55;1.60;;;;;;;11.87;67.74;103270.13;4929743;28;119958;-83
2021/12/18 04:29:07;;;;;;;2.58;1.48;;;;;;;11.94;67.95;103266.56;4911506;28;121488;-82
2021/12/18 04:31:35;;;;;;;2.05;1.40;;;;;;;11.87;67.62;103250.09;4927337;28;120251;-82
2021/12/18 04:34:01;;;;;;;2.10;1.20;;;;;;;11.91;67.65;103259.09;4910819;28;119539;-82
2021/12/18 04:36:27;;;;;;;1.80;1.30;;;;;;;11.95;67.70;103262.63;4926561;28;122209;-83
2021/12/18 04:38:52;;;;;;;1.50;1.30;;;;;;;11.72;67.49;103227.28;4908827;28;119611;-84
2021/12/18 04:41:24;;;;;;;2.38;1.60;;;;;;;11.87;67.81;103244.59;4910678;28;122207;-84
2021/12/18 04:43:51;;;;;;;2.05;1.50;;;;;;;11.76;67.78;103222.56;4926101;28;122904;-84
2021/12/18 04:46:17;;;;;;;3.35;1.50;;;;;;;11.85;67.64;103235.94;4927207;28;119759;-82
2021/12/18 04:48:43;;;;;;;2.80;1.60;;;;;;;11.96;67.46;103242.97;4911428;28;120064;-84
2021/12/18 04:51:09;;;;;;;3.42;1.90;;;;;;;11.98;67.45;103251.63;4942172;28;121459;-84
2021/12/18 04:53:35;;;;;;;2.05;1.85;;;;;;;11.75;67.80;103210.00;4942846;28;119851;-85
2021/12/18 04:56:00;;;;;;;1.92;1.58;;;;;;;11.88;67.45;103219.44;4924690;28;122725;-86
2021/12/18 04:58:26;;;;;;;1.83;1.50;;;;;;;11.90;67.88;103221.78;4942837;28;119860;-84
2021/12/18 05:00:53;;;;;;;2.22;1.77;;;;;;;11.89;67.79;103220.22;4923778;28;119701;-83
2021/12/18 05:03:19;;;;;;;2.55;1.77;;;;;;;12.01;67.46;103244.53;4924881;28;123278;-84
2021/12/18 05:05:46;;;;;;;2.83;1.77;;;;;;;11.86;67.49;103226.50;4927732;28;119799;-82
2021/12/18 05:08:12;;;;;;;2.50;1.80;;;;;;;11.79;67.53;103207.25;4908237;28;122747;-85
2021/12/18 05:10:37;;;;;;;2.63;1.75;;;;;;;12.01;67.58;103246.50;4929881;28;123195;-83
2021/12/18 05:13:03;;;;;;;2.05;1.63;;;;;;;11.85;67.74;103224.94;4943825;28;120117;-83
2021/12/18 05:15:29;;;;;;;3.92;1.90;;;;;;;11.99;67.76;103255.16;4929525;28;123291;-83
2021/12/18 05:17:55;;;;;;;2.83;2.00;;;;;;;11.84;67.88;103234.38;4929427;28;119687;-84
2021/12/18 05:20:20;;;;;;;3.20;2.05;;;;;;;12.00;67.85;103251.22;4930457;28;120073;-83
2021/12/18 05:22:46;;;;;;;3.03;2.10;;;;;;;12.01;68.04;103249.25;4947201;28;121188;-82
2021/12/18 05:25:11;;;;;;;2.70;2.00;;;;;;;11.91;67.83;103235.13;4928917;28;120149;-85
2021/12/18 05:27:37;;;;;;;3.63;2.25;;;;;;;11.96;67.84;103250.44;4930129;28;122024;-85
2021/12/18 05:30:05;;;;;;;3.17;2.10;;;;;;;12.01;68.11;103255.53;4917435;28;123275;-82
2021/12/18 05:32:30;;;;;;;3.28;2.13;;;;;;;11.89;68.38;103242.22;4945035;28;122812;-84
2021/12/18 05:34:56;;;;;;;2.80;1.80;;;;;;;11.91;67.99;103235.13;4929642;28;122664;-83
2021/12/18 05:39:51;;;;;;;2.20;1.20;;;;;;;11.83;68.30;103221.78;4929702;28;119520;-84
2021/12/18 05:42:17;;;;;;;2.35;1.05;;;;;;;12.03;68.27;103255.13;4924253;28;120194;-82
2021/12/18 05:44:43;;;;;;;1.52;0.90;;;;;;;11.79;68.14;103219.03;4930597;28;120425;-85
2021/12/18 05:47:09;;;;;;;1.98;0.75;;;;;;;11.92;68.05;103236.72;4911437;28;122955;-83
2021/12/18 05:49:35;;;;;;;1.00;0.90;;;;;;;11.85;67.80;103213.94;4927228;28;121071;-84
2021/12/18 05:52:00;;;;;;;1.00;0.85;;;;;;;11.92;68.06;103231.19;4916039;28;120232;-83
2021/12/18 05:54:26;;;;;;;1.85;0.80;;;;;;;11.86;68.70;103204.50;4898599;28;122700;-85
2021/12/18 05:56:51;;;;;;;1.20;0.90;;;;;;;12.08;68.54;103233.50;4928035;28;119934;-81
2021/12/18 05:59:17;;;;;;;1.30;0.75;;;;;;;12.01;68.86;103219.75;4929766;28;121850;-82
2021/12/18 06:01:43;;;;;;;2.35;0.95;;;;;;;12.06;67.91;103227.59;4946320;28;120783;-83
2021/12/18 06:04:09;;;;;;;1.00;0.90;;;;;;;11.96;68.09;103209.97;4928264;28;121410;-84
2021/12/18 06:06:34;;;;;;;2.33;0.68;;;;;;;11.84;67.80;103195.88;4898401;28;122315;-84
2021/12/18 06:09:00;;;;;;;1.20;0.70;;;;;;;12.07;68.00;103226.44;4927176;28;123888;-82
2021/12/18 06:11:28;;;;;;;0.80;0.70;;;;;;;12.01;68.16;103228.03;4927729;28;120191;-84
2021/12/18 06:13:54;;;;;;;1.70;0.80;;;;;;;11.94;68.84;103217.84;4933725;28;121032;-84
2021/12/18 06:16:21;;;;;;;2.03;0.70;;;;;;;11.99;68.50;103233.94;4928998;28;120432;-84
2021/12/18 06:18:50;;;;;;;1.30;0.80;;;;;;;11.85;68.09;103200.97;4925804;28;122364;-83
2021/12/18 06:21:17;;;;;;;1.17;0.90;;;;;;;11.83;68.27;103195.09;4930855;28;119845;-84
2021/12/18 06:23:46;;;;;;;1.67;0.80;;;;;;;11.87;68.24;103206.06;4910858;28;121398;-83
2021/12/18 06:26:14;;;;;;;1.00;0.80;;;;;;;11.96;68.07;103211.94;4924462;28;123273;-82
2021/12/18 06:28:40;;;;;;;2.22;0.82;;;;;;;11.78;67.87;103183.66;4913395;28;123068;-84
2021/12/18 06:31:06;;;;;;;1.30;0.75;;;;;;;11.86;68.00;103194.28;4928926;28;120193;-83
2021/12/18 06:33:32;;;;;;;1.73;0.68;;;;;;;12.03;68.11;103216.63;4927348;28;119709;-85
2021/12/18 06:35:58;;;;;;;0.95;0.70;;;;;;;11.98;67.97;103209.56;4915704;28;122172;-82
2021/12/18 06:38:24;;;;;;;0.60;0.60;;;;;;;11.96;67.97;103209.19;4925599;28;119901;-83
2021/12/18 06:40:50;;;;;;;1.65;0.70;;;;;;;11.98;67.95;103218.59;4943558;28;123353;-83
2021/12/18 06:43:16;;;;;;;1.10;0.80;;;;;;;11.83;68.11;103197.84;4943717;28;119981;-83
2021/12/18 06:45:42;;;;;;;1.65;1.00;;;;;;;11.98;68.26;103215.06;4947235;28;119552;-82
2021/12/18 06:48:07;;;;;;;2.17;1.02;;;;;;;11.83;67.98;103189.59;4928537;28;123176;-83
2021/12/18 06:50:35;;;;;;;1.48;1.00;;;;;;;12.00;68.63;103209.94;4896025;28;119727;-84
2021/12/18 06:53:02;;;;;;;1.15;1.00;;;;;;;11.86;68.75;103188.78;4932895;28;120012;-83
2021/12/18 06:55:32;;;;;;;3.85;1.33;;;;;;;12.04;68.91;103210.72;4933033;28;122984;-83
2021/12/18 06:57:58;;;;;;;3.35;1.60;;;;;;;11.96;68.88;103207.22;4931827;28;119852;-84
2021/12/18 07:00:25;;;;;;;4.43;1.50;;;;;;;12.07;68.69;103209.16;4931569;28;120792;-83
2021/12/18 07:02:51;;;;;;;3.40;1.60;;;;;;;12.09;69.36;103206.78;4911965;28;119688;-83
2021/12/18 07:05:17;;;;;;;3.55;1.58;;;;;;;11.96;69.09;103187.16;4901187;28;120484;-84
2021/12/18 07:07:42;;;;;;;5.28;1.85;;;;;;;12.05;68.89;103193.03;4927240;28;124090;-84
2021/12/18 07:10:11;;;;;;;7.03;2.30;;;;;;;12.00;68.98;103193.44;4930324;28;119855;-83
2021/12/18 07:12:37;;;;;;;6.50;2.00;;;;;;;12.08;68.38;103192.25;4927955;28;119971;-86
2021/12/18 07:15:04;;;;;;;6.43;2.50;;;;;;;11.94;68.66;103173.03;4934375;28;120177;-84
2021/12/18 07:17:30;;;;;;;8.82;2.63;;;;;;;12.11;68.71;103205.19;4929159;28;120994;-85
2021/12/18 07:19:58;;;;;;;8.18;3.10;;;;;;;11.99;68.76;103192.66;4914132;28;121685;-85
2021/12/18 07:22:24;;;;;;;9.07;3.50;;;;;;;12.05;68.56;103200.50;4924663;28;121104;-85
2021/12/18 07:24:50;;;;;;;10.73;3.70;;;;;;;11.97;69.01;103203.28;4928033;28;122349;-84
2021/12/18 07:27:16;;;;;;;12.40;3.90;;;;;;;12.07;68.97;103215.44;4913398;28;121176;-83
2021/12/18 07:29:41;;;;;;;11.80;4.45;;;;;;;11.97;68.95;103206.03;4896797;28;119882;-85
2021/12/18 07:32:08;;;;;;;12.52;4.00;;;;;;;12.05;68.98;103212.28;4905222;28;121599;-84
2021/12/18 07:34:35;;;;;;;13.52;4.80;;;;;;;12.06;68.93;103218.56;4924070;28;121587;-84
2021/12/18 07:37:00;;;;;;;14.68;5.10;;;;;;;11.91;69.36;103196.63;4925460;28;119823;-85
2021/12/18 07:39:26;;;;;;;13.02;5.32;;;;;;;12.01;69.50;103205.22;4913889;28;121601;-82
2021/12/18 07:41:51;;;;;;;18.10;5.65;;;;;;;12.06;69.33;103197.34;4909505;28;119771;-82
2021/12/18 07:44:17;;;;;;;11.63;4.65;;;;;;;11.90;69.22;103172.28;4925473;28;121690;-80
2021/12/18 07:46:42;;;;;;;14.20;4.88;;;;;;;11.87;69.10;103181.31;4926219;28;120385;-84
2021/12/18 07:49:09;;;;;;;18.30;5.90;;;;;;;12.11;69.15;103199.69;4924958;28;119903;-83
2021/12/18 07:51:35;;;;;;;16.83;5.45;;;;;;;12.14;69.19;103204.41;4926044;28;120829;-83
2021/12/18 07:54:02;;;;;;;13.15;4.53;;;;;;;12.13;68.90;103191.81;4927726;28;120136;-82
2021/12/18 07:56:27;;;;;;;13.55;4.45;;;;;;;12.03;68.76;103178.09;4923569;28;119985;-81
2021/12/18 07:58:53;;;;;;;11.05;4.25;;;;;;;12.17;68.57;103203.59;4924814;28;121389;-80
2021/12/18 08:01:19;;;;;;;17.50;5.03;;;;;;;12.15;68.73;103200.47;4926627;28;123473;-80
2021/12/18 08:03:44;;;;;;;13.35;4.50;;;;;;;12.18;69.01;103198.88;4919893;28;122555;-80
2021/12/18 08:06:10;;;;;;;15.63;4.78;;;;;;;12.23;68.94;103212.22;4938104;28;120218;-80
2021/12/18 08:08:36;;;;;;;13.48;4.47;;;;;;;12.24;68.80;103197.25;4920881;28;121074;-85
2021/12/18 08:11:02;;;;;;;13.10;3.92;;;;;;;12.32;69.12;103193.31;4926477;28;122049;-82
2021/12/18 08:13:28;;;;;;;19.30;3.88;;;;;;;12.34;68.73;103210.22;4906525;28;120410;-81
2021/12/18 08:15:54;;;;;;;15.60;4.13;;;;;;;12.21;68.65;103182.34;4907751;28;121456;-81
2021/12/18 08:18:19;;;;;;;17.20;4.78;;;;;;;12.39;68.74;103209.00;4925255;28;120238;-78
2021/12/18 08:20:45;;;;;;;17.73;4.13;;;;;;;12.40;69.00;103202.31;4923874;28;121357;-80
2021/12/18 08:23:13;;;;;;;19.40;4.63;;;;;;;12.36;68.56;103194.06;4927588;28;120292;-79
2021/12/18 08:25:39;;;;;;;18.42;4.43;;;;;;;12.49;68.64;103205.38;4924841;28;120357;-81
2021/12/18 08:28:06;;;;;;;21.48;4.65;;;;;;;12.51;68.75;103203.00;4923764;28;119988;-79
2021/12/18 08:30:35;;;;;;;17.88;4.72;;;;;;;12.24;68.68;103159.53;4924523;28;119871;-83
2021/12/18 08:33:01;;;;;;;21.65;5.38;;;;;;;12.56;68.84;103202.63;4922172;28;120476;-80
2021/12/18 08:35:31;;;;;;;23.35;5.10;;;;;;;12.59;68.74;103196.28;4938838;28;120460;-78
2021/12/18 08:37:58;;;;;;;25.50;4.95;;;;;;;12.53;68.75;103178.63;4924205;28;119963;-79
2021/12/18 08:40:26;;;;;;;17.13;4.65;;;;;;;12.69;68.42;103195.44;4924378;28;121916;-81
2021/12/18 08:42:53;;;;;;;26.55;5.07;;;;;;;12.72;68.62;103191.88;4923565;28;121907;-80
2021/12/18 08:45:19;;;;;;;27.33;5.32;;;;;;;12.66;68.37;103176.97;4924849;28;120896;-81
2021/12/18 08:47:45;;;;;;;22.00;4.38;;;;;;;12.75;68.43;103187.50;4920826;28;120590;-80
2021/12/18 08:50:15;;;;;;;25.67;5.10;;;;;;;12.74;68.48;103191.47;4927700;28;120652;-80
2021/12/18 08:52:42;;;;;;;24.10;4.63;;;;;;;12.73;68.09;103168.66;4940053;28;119946;-80
2021/12/18 08:55:08;;;;;;;20.83;4.88;;;;;;;12.87;68.75;103189.81;4946532;28;120429;-80
2021/12/18 08:57:34;;;;;;;24.23;5.65;;;;;;;12.89;68.45;103187.41;4930090;28;119345;-80
2021/12/18 08:59:59;;;;;;;21.10;4.95;;;;;;;12.93;68.59;103185.41;4941503;28;120935;-81
2021/12/18 09:02:25;;;;;;;24.60;5.72;;;;;;;12.95;68.40;103190.53;4927805;28;119946;-80
2021/12/18 09:04:51;;;;;;;27.52;4.85;;;;;;;12.90;67.93;103170.47;4924683;28;121772;-80
2021/12/18 09:07:17;;;;;;;23.80;5.28;;;;;;;12.97;68.13;103177.91;4940933;28;120302;-80
2021/12/18 09:09:42;;;;;;;26.70;5.80;;;;;;;13.00;67.94;103176.31;4921191;28;121335;-80
2021/12/18 09:12:11;;;;;;;24.45;5.95;;;;;;;12.98;67.83;103168.44;4955015;28;121573;-80
2021/12/18 09:14:37;;;;;;;25.42;5.38;;;;;;;12.98;67.78;103162.16;4934401;28;121286;-80
2021/12/18 09:17:03;;;;;;;27.70;5.35;;;;;;;12.95;67.43;103154.69;4931091;28;120195;-81
2021/12/18 09:19:29;;;;;;;28.10;6.30;;;;;;;12.97;67.28;103166.09;4931560;28;122078;-80
2021/12/18 09:21:55;;;;;;;33.28;6.75;;;;;;;13.01;67.57;103167.66;4934887;28;119987;-80
2021/12/18 09:24:21;;;;;;;31.15;6.55;;;;;;;12.99;67.30;103155.44;4917946;28;120510;-82
2021/12/18 09:26:48;;;;;;;27.67;6.20;;;;;;;13.01;67.25;103156.63;4933730;28;120472;-80
2021/12/18 09:29:14;;;;;;;28.08;6.13;;;;;;;13.00;67.41;103160.56;4935507;28;124410;-80
2021/12/18 09:31:40;;;;;;;25.85;6.22;;;;;;;13.00;67.43;103149.53;4907213;28;122890;-79
2021/12/18 09:34:06;;;;;;;29.70;6.35;;;;;;;12.96;67.33;103136.97;4916458;28;120618;-81
2021/12/18 09:36:32;;;;;;;27.70;5.95;;;;;;;13.01;67.64;103150.31;4937440;28;123309;-80
2021/12/18 09:38:57;;;;;;;44.25;7.45;;;;;;;13.02;67.41;103136.16;4935942;28;122725;-80
2021/12/18 09:41:24;;;;;;;44.55;7.35;;;;;;;13.04;67.27;103130.22;4934960;28;119620;-79
2021/12/18 09:43:49;;;;;;;37.28;6.65;;;;;;;12.94;67.74;103122.84;4936246;28;121079;-79
2021/12/18 09:46:16;;;;;;;34.75;7.50;;;;;;;13.05;67.51;103129.03;4919015;28;121785;-79
2021/12/18 09:48:43;;;;;;;29.17;5.82;;;;;;;12.94;67.38;103100.78;4922735;28;120023;-79
2021/12/18 09:51:21;;;;;;;39.00;7.22;;;;;;;13.08;67.56;103117.97;4919630;28;123746;-80
2021/12/18 09:53:46;;;;;;;41.20;7.22;;;;;;;12.99;67.44;103103.88;4948801;28;120005;-80
2021/12/18 09:56:12;;;;;;;29.35;6.72;;;;;;;13.00;67.55;103094.44;4934355;28;120546;-79
2021/12/18 09:58:38;;;;;;;29.02;7.35;;;;;;;13.08;67.52;103106.19;4936061;28;119789;-79
2021/12/18 10:01:03;;;;;;;22.48;6.03;;;;;;;13.16;67.62;103115.94;4932862;28;121779;-80
2021/12/18 10:03:45;;;;;;;33.95;7.15;;;;;;;13.14;67.61;103105.31;4934875;28;121732;-80
2021/12/18 10:06:33;;;;;;;27.08;7.30;;;;;;;13.16;67.32;103115.94;4921034;28;121820;-80
2021/12/18 10:08:59;;;;;;;26.00;6.65;;;;;;;13.16;67.38;103115.94;4937550;28;120876;-80
2021/12/18 10:11:24;;;;;;;30.42;7.90;;;;;;;13.16;67.35;103108.44;4952324;28;121676;-80
2021/12/18 10:13:55;;;;;;;35.38;7.18;;;;;;;13.20;67.31;103102.91;4937908;28;119682;-79
2021/12/18 10:16:22;;;;;;;36.80;6.85;;;;;;;13.19;67.15;103106.88;4937992;28;121008;-79
2021/12/18 10:18:49;;;;;;;38.65;7.47;;;;;;;13.17;67.05;103095.44;4933564;28;121116;-79
2021/12/18 10:21:18;;;;;;;33.92;6.85;;;;;;;13.19;67.32;103095.84;4934683;28;120651;-80
2021/12/18 10:23:45;;;;;;;26.73;6.80;;;;;;;13.17;67.76;103104.53;4908524;28;120377;-80
2021/12/18 10:26:35;;;;;;;28.45;6.40;;;;;;;13.19;66.99;103079.31;4916292;28;120179;-80
2021/12/18 10:29:02;;;;;;;32.50;6.80;;;;;;;13.17;67.35;103088.00;4939250;28;120505;-81
2021/12/18 10:31:47;;;;;;;29.23;7.15;;;;;;;13.20;66.86;103091.91;4934098;28;120063;-80
2021/12/18 10:34:19;;;;;;;26.08;7.00;;;;;;;13.06;67.22;103061.72;4935778;28;120136;-80
2021/12/18 10:37:07;;;;;;;27.33;6.78;;;;;;;13.26;67.73;103073.75;4893117;28;120283;-80
2021/12/18 10:39:36;;;;;;;38.05;7.72;;;;;;;13.26;67.67;103081.22;4933886;28;120399;-80
2021/12/18 10:42:20;;;;;;;35.28;7.53;;;;;;;13.26;67.54;103075.72;4916971;28;121176;-79
2021/12/18 10:44:56;;;;;;;33.05;7.43;;;;;;;13.18;67.61;103066.72;4935931;28;120200;-80
2021/12/18 10:47:23;;;;;;;60.22;9.35;;;;;;;13.31;67.16;103076.03;4933526;28;124430;-80
2021/12/18 10:49:48;;;;;;;44.97;8.18;;;;;;;13.36;67.17;103083.84;4935457;28;119617;-80
2021/12/18 10:52:14;;;;;;;59.97;9.27;;;;;;;13.15;67.08;103040.75;4931951;28;121868;-80
2021/12/18 10:54:40;;;;;;;43.58;7.65;;;;;;;13.40;67.76;103079.06;4915747;28;123293;-80
2021/12/18 10:57:19;;;;;;;43.15;7.85;;;;;;;13.37;67.58;103057.84;4937422;28;120417;-80
2021/12/18 10:59:51;;;;;;;30.02;7.80;;;;;;;13.52;67.02;103080.53;4932093;28;122664;-80
2021/12/18 11:02:17;;;;;;;38.03;7.88;;;;;;;13.48;67.06;103064.00;4930476;28;120816;-79
2021/12/18 11:04:44;;;;;;;34.67;7.40;;;;;;;13.41;67.35;103053.06;4952258;28;119638;-80
2021/12/18 11:07:33;;;;;;;33.85;7.35;;;;;;;13.49;67.29;103053.78;4933063;28;120659;-80
2021/12/18 11:10:40;;;;;;;34.35;8.10;;;;;;;13.61;66.95;103060.72;4932503;28;121338;-80
2021/12/18 11:15:54;;;;;;;52.80;9.20;;;;;;;13.68;66.68;103057.84;4920882;28;121086;-79
2021/12/18 11:18:19;;;;;;;35.17;7.72;;;;;;;13.56;66.54;103041.88;4932059;28;119900;-80
2021/12/18 11:20:51;;;;;;;56.38;10.23;;;;;;;13.64;66.19;103046.88;4938394;28;119791;-80
2021/12/18 11:23:24;;;;;;;48.58;7.82;;;;;;;13.74;nan;103072.75;4930989;28;120218;-80
2021/12/18 11:25:52;;;;;;;34.80;8.10;;;;;;;13.66;66.82;103052.75;4928081;28;121261;-79
2021/12/18 11:28:18;;;;;;;52.85;13.45;;;;;;;13.62;66.51;103042.97;4932503;28;123460;-79
2021/12/18 11:30:45;;;;;;;32.75;8.07;;;;;;;13.72;66.58;103055.81;4932174;28;119688;-80
2021/12/18 11:33:10;;;;;;;29.77;6.95;;;;;;;13.76;66.33;103053.81;4931684;28;119833;-80
2021/12/18 11:35:36;;;;;;;34.05;6.80;;;;;;;13.76;66.28;103054.59;4931897;28;121837;-80
2021/12/18 11:38:08;;;;;;;31.27;7.32;;;;;;;13.70;66.05;103030.63;4932366;28;120207;-80
2021/12/18 11:40:37;;;;;;;29.70;7.20;;;;;;;13.82;65.65;103043.88;4936509;28;120076;-80
2021/12/18 11:43:35;;;;;;;38.38;7.50;;;;;;;13.81;66.07;103045.06;4932885;28;120374;-80
2021/12/18 11:46:20;;;;;;;34.00;7.03;;;;;;;13.83;66.15;103037.16;4932202;28;120700;-80
2021/12/18 11:49:00;;;;;;;31.63;6.90;;;;;;;13.77;65.62;103025.03;4917954;28;119990;-80
2021/12/18 11:51:28;;;;;;;28.73;6.30;;;;;;;13.83;66.19;103037.16;4932315;28;121563;-80
2021/12/18 11:53:54;;;;;;;36.60;6.55;;;;;;;13.74;65.91;103021.13;4933565;28;120457;-79
2021/12/18 11:56:20;;;;;;;29.98;6.03;;;;;;;13.85;66.07;103034.75;4931986;28;122628;-80
2021/12/18 11:58:47;;;;;;;28.33;5.22;;;;;;;13.86;65.77;103017.00;4916902;28;120358;-80
2021/12/18 12:01:25;;;;;;;26.60;5.65;;;;;;;13.83;65.32;103026.13;4934133;28;120725;-80
2021/12/18 12:03:51;;;;;;;29.92;5.30;;;;;;;13.78;65.44;103013.59;4935625;28;120903;-80